Time;durP1;ratioP1;P1;durP2;ratioP2;P2;SDS_P1;SDS_P2;PMS_P1;PMS_P2;Temp;Humidity;BMP_temperature;BMP_pressure;BME280_temperature;BME280_humidity;BME280_pressure;Samples;Min_cycle;Max_cycle;Signal;HPM_P1;HPM_P2
2023/09/28 00:01:45;;;;;;;6.97;1.95;;;;;;;-145.69;49.31;52091.88;5115840;27;20189;-81
2023/09/28 00:04:12;;;;;;;3.08;2.00;;;;;;;-145.69;49.34;52091.88;5115651;28;20713;-81
2023/09/28 00:06:39;;;;;;;4.68;2.08;;;;;;;-145.69;48.22;52091.88;5115721;28;20304;-82
2023/09/28 00:09:06;;;;;;;5.40;2.10;;;;;;;-145.69;49.06;52093.88;5115511;28;20221;-81
2023/09/28 00:11:32;;;;;;;4.53;2.33;;;;;;;-145.69;49.75;52080.00;5115875;28;20193;-81
2023/09/28 00:13:59;;;;;;;4.07;1.95;;;;;;;-145.69;49.66;52068.13;5115814;28;20284;-81
2023/09/28 00:16:25;;;;;;;3.58;1.98;;;;;;;-145.69;49.88;52074.06;5115602;28;20200;-81
2023/09/28 00:18:51;;;;;;;6.00;2.30;;;;;;;-145.69;50.42;52044.38;5115400;28;20229;-81
2023/09/28 00:21:17;;;;;;;4.40;1.85;;;;;;;-145.69;51.38;52087.94;5127552;27;20569;-81
2023/09/28 00:23:44;;;;;;;5.03;2.00;;;;;;;-145.69;52.73;52107.72;5135370;27;20197;-81
2023/09/28 00:26:12;;;;;;;8.48;2.17;;;;;;;-145.69;48.60;52095.84;5133861;27;20192;-81
2023/09/28 00:28:41;;;;;;;4.80;2.70;;;;;;;-145.69;48.76;52107.72;5135858;27;20220;-81
2023/09/28 00:31:09;;;;;;;4.45;2.13;;;;;;;-145.69;50.82;52115.66;5115567;27;20389;-82
2023/09/28 00:33:37;;;;;;;4.82;1.83;;;;;;;-145.69;49.13;52076.03;5115050;28;20246;-81
2023/09/28 00:36:07;;;;;;;3.10;1.70;;;;;;;-145.69;49.38;52095.84;5115334;28;20284;-82
2023/09/28 00:38:32;;;;;;;3.43;1.77;;;;;;;-145.69;47.53;52095.84;5115486;27;20235;-81
2023/09/28 00:40:59;;;;;;;3.28;1.67;;;;;;;-145.69;46.81;52070.09;5114911;28;20225;-81
2023/09/28 00:43:25;;;;;;;6.57;1.73;;;;;;;-145.69;46.06;52115.66;5115236;28;20209;-82
2023/09/28 00:45:53;;;;;;;5.60;1.77;;;;;;;-145.69;46.86;52087.94;5115075;28;20240;-81
2023/09/28 00:48:22;;;;;;;3.55;1.73;;;;;;;-145.69;47.80;52115.66;5114645;28;20236;-81
2023/09/28 00:50:49;;;;;;;9.07;1.93;;;;;;;-145.69;48.33;52050.31;5114179;27;20563;-81
2023/09/28 00:53:14;;;;;;;4.55;1.92;;;;;;;-145.69;48.34;52085.94;5114980;28;20202;-82
2023/09/28 00:55:45;;;;;;;5.38;1.90;;;;;;;-145.69;48.52;52062.19;5123236;27;20254;-82
2023/09/28 00:58:10;;;;;;;8.15;1.90;;;;;;;-145.69;49.01;52085.94;5135301;27;20265;-81
2023/09/28 01:00:40;;;;;;;2.72;1.63;;;;;;;-145.69;48.79;52099.81;5122196;27;20201;-81
2023/09/28 01:03:11;;;;;;;5.47;1.70;;;;;;;-145.69;49.56;52060.22;5108991;27;20246;-81
2023/09/28 01:05:40;;;;;;;6.00;2.00;;;;;;;-145.69;49.52;52119.63;5125294;27;20220;-81
2023/09/28 01:08:06;;;;;;;6.57;1.98;;;;;;;-145.69;49.72;52091.88;5134684;27;20683;-81
2023/09/28 01:10:35;;;;;;;3.67;2.00;;;;;;;-145.69;49.66;52072.09;5135043;27;20284;-81
2023/09/28 01:13:06;;;;;;;3.92;1.88;;;;;;;-145.69;50.02;52080.00;5134957;27;20212;-81
2023/09/28 01:15:35;;;;;;;6.18;2.10;;;;;;;-145.69;50.42;52115.66;5117937;27;20644;-81
2023/09/28 01:18:01;;;;;;;2.63;1.73;;;;;;;-145.69;49.35;52080.00;5114356;28;20233;-82
2023/09/28 01:20:35;;;;;;;4.50;2.10;;;;;;;-145.69;48.15;52070.09;5124172;27;20299;-82
2023/09/28 01:23:02;;;;;;;3.90;1.77;;;;;;;-145.69;47.72;52060.22;5114770;28;20594;-82
2023/09/28 01:25:29;;;;;;;4.97;1.80;;;;;;;-145.69;47.93;52111.69;5114118;28;20201;-81
2023/09/28 01:27:57;;;;;;;7.22;2.20;;;;;;;-145.69;48.06;52091.88;5114112;28;20229;-81
2023/09/28 01:30:24;;;;;;;6.50;1.85;;;;;;;-145.69;48.39;52099.81;5131374;27;20192;-82
2023/09/28 01:32:52;;;;;;;4.07;2.30;;;;;;;-145.69;47.02;52080.00;5134369;27;20197;-81
2023/09/28 01:35:18;;;;;;;4.88;2.30;;;;;;;-145.69;47.65;52076.03;5134165;27;20215;-82
2023/09/28 01:37:55;;;;;;;4.77;2.20;;;;;;;-145.69;48.81;52080.00;5134285;27;20540;-82
2023/09/28 01:40:28;;;;;;;4.10;2.07;;;;;;;-145.69;47.84;52056.25;5134660;27;20231;-81
2023/09/28 01:42:53;;;;;;;8.88;2.33;;;;;;;-145.69;48.31;52040.41;5134425;27;20205;-82
2023/09/28 01:45:22;;;;;;;4.27;2.17;;;;;;;-145.69;49.20;52074.06;5134573;27;20204;-81
2023/09/28 01:47:48;;;;;;;4.97;1.70;;;;;;;-145.69;50.37;52040.41;5132688;27;20288;-81
2023/09/28 01:50:14;;;;;;;3.60;1.90;;;;;;;-145.69;50.47;52097.84;5132381;27;20296;-82
2023/09/28 01:52:40;;;;;;;4.70;1.95;;;;;;;-145.69;51.02;52083.97;5118763;27;20201;-81
2023/09/28 01:55:09;;;;;;;5.07;2.10;;;;;;;-145.69;49.96;52087.94;5118771;27;20287;-81
2023/09/28 01:57:36;;;;;;;5.28;2.15;;;;;;;-145.69;47.27;52097.84;5114019;28;20196;-81
2023/09/28 02:00:08;;;;;;;4.13;1.98;;;;;;;-145.69;47.55;52082.00;5114026;28;20212;-82
2023/09/28 02:02:34;;;;;;;6.37;2.23;;;;;;;-145.69;47.27;52080.00;5113761;28;20537;-81
2023/09/28 02:05:01;;;;;;;5.65;2.40;;;;;;;-145.69;47.01;52089.91;5113727;28;20762;-80
2023/09/28 02:07:32;;;;;;;7.70;2.43;;;;;;;-145.69;46.59;52064.16;5113507;28;20208;-81
2023/09/28 02:09:59;;;;;;;4.07;2.10;;;;;;;-145.69;46.35;52056.25;5113318;28;20447;-82
2023/09/28 02:12:26;;;;;;;4.85;2.25;;;;;;;-145.69;46.03;52082.00;5115076;27;20225;-82
2023/09/28 02:14:54;;;;;;;7.57;2.63;;;;;;;-145.69;46.78;52099.81;5113710;28;20193;-81
2023/09/28 02:17:29;;;;;;;7.72;2.33;;;;;;;-145.69;46.21;52089.91;5117289;27;20192;-80
2023/09/28 02:19:58;;;;;;;5.35;2.53;;;;;;;-145.69;46.08;52072.09;5133897;27;20220;-82
2023/09/28 02:22:24;;;;;;;4.05;2.20;;;;;;;-145.69;45.54;52048.31;5133771;27;20201;-81
2023/09/28 02:24:53;;;;;;;3.00;1.88;;;;;;;-145.69;45.27;52074.06;5133901;27;20730;-82
2023/09/28 02:27:22;;;;;;;4.88;2.58;;;;;;;-145.69;45.34;52064.16;5134100;27;20193;-82
2023/09/28 02:29:48;;;;;;;4.00;2.35;;;;;;;-145.69;45.38;52076.03;5134184;27;20229;-81
2023/09/28 02:32:16;;;;;;;4.63;2.33;;;;;;;-145.69;45.76;52060.22;5133854;27;20292;-81
2023/09/28 02:34:41;;;;;;;4.43;2.40;;;;;;;-145.69;46.10;52054.25;5134334;27;20257;-82
2023/09/28 02:37:12;;;;;;;4.40;2.50;;;;;;;-145.69;45.78;52044.38;5134002;27;20209;-81
2023/09/28 02:39:37;;;;;;;4.43;2.22;;;;;;;-145.69;44.83;52062.19;5133857;27;20262;-81
2023/09/28 02:45:25;;;;;;;5.82;2.72;;;;;;;-145.69;45.62;52099.81;5108786;28;20774;-81
2023/09/28 02:47:54;;;;;;;4.88;2.50;;;;;;;-145.69;44.57;52048.31;5121848;27;20718;-81
2023/09/28 02:50:22;;;;;;;5.47;2.65;;;;;;;-145.69;44.75;52070.09;5137922;27;20192;-81
2023/09/28 02:52:59;;;;;;;4.57;2.22;;;;;;;-145.69;44.99;52042.38;5138139;27;20716;-81
2023/09/28 02:55:29;;;;;;;3.78;2.08;;;;;;;-145.69;45.72;52076.03;5121616;27;20197;-81
2023/09/28 02:57:54;;;;;;;3.83;2.30;;;;;;;-145.69;45.32;52052.28;5117120;27;20709;-81
2023/09/28 03:00:30;;;;;;;5.43;2.47;;;;;;;-145.69;45.18;52050.31;5116926;28;20205;-81
2023/09/28 03:02:57;;;;;;;6.20;2.30;;;;;;;-145.69;44.89;52066.16;5117049;28;20200;-82
2023/09/28 03:05:28;;;;;;;6.65;2.35;;;;;;;-145.69;44.71;52044.38;5117923;27;20212;-82
2023/09/28 03:07:55;;;;;;;4.95;2.20;;;;;;;-145.69;45.82;52060.22;5115643;28;20603;-81
2023/09/28 03:10:22;;;;;;;6.07;2.60;;;;;;;-145.69;45.63;52070.09;5117136;28;20580;-82
2023/09/28 03:12:49;;;;;;;5.85;2.20;;;;;;;-145.69;45.66;52076.03;5116919;28;20213;-81
2023/09/28 03:15:17;;;;;;;5.28;2.55;;;;;;;-145.69;45.49;52085.94;5117379;27;20529;-81
2023/09/28 03:17:47;;;;;;;5.65;2.42;;;;;;;-145.69;46.10;52091.88;5119931;27;20678;-81
2023/09/28 03:20:15;;;;;;;4.32;2.13;;;;;;;-145.69;45.29;52032.47;5139933;27;20206;-81
2023/09/28 03:22:45;;;;;;;3.88;2.17;;;;;;;-145.69;46.03;52072.09;5136902;27;20671;-81
2023/09/28 03:25:15;;;;;;;5.57;2.38;;;;;;;-145.69;46.82;52070.09;5125124;27;20197;-81
2023/09/28 03:27:43;;;;;;;6.53;2.88;;;;;;;-145.69;45.65;52087.94;5116899;28;20211;-82
2023/09/28 03:30:10;;;;;;;3.72;2.00;;;;;;;-145.69;44.88;52054.25;5116516;28;20316;-82
2023/09/28 03:32:37;;;;;;;7.03;2.63;;;;;;;-145.69;45.88;52070.09;5116657;28;20230;-81
2023/09/28 03:35:04;;;;;;;6.72;2.22;;;;;;;-145.69;45.08;52076.03;5126189;27;20276;-80
2023/09/28 03:37:34;;;;;;;5.15;2.45;;;;;;;-145.69;45.28;52056.25;5136885;27;20224;-82
2023/09/28 03:40:09;;;;;;;5.88;2.83;;;;;;;-145.69;44.33;52076.03;5137014;27;20288;-82
2023/09/28 03:42:36;;;;;;;5.53;2.40;;;;;;;-145.69;44.78;52060.22;5133833;27;20249;-81
2023/09/28 03:45:08;;;;;;;5.85;2.28;;;;;;;-145.69;45.59;52034.47;5116258;28;20207;-81
2023/09/28 03:47:35;;;;;;;5.22;2.30;;;;;;;-145.69;45.91;52056.25;5117209;27;20671;-81
2023/09/28 03:50:01;;;;;;;5.75;2.30;;;;;;;-145.69;45.50;52050.31;5136519;27;20996;-82
2023/09/28 03:52:31;;;;;;;3.55;2.00;;;;;;;-145.69;47.46;52050.31;5132506;27;20253;-81
2023/09/28 03:54:58;;;;;;;6.70;2.28;;;;;;;-145.69;47.51;52072.09;5136711;27;20204;-81
2023/09/28 03:57:25;;;;;;;5.93;2.70;;;;;;;-145.69;46.67;52083.97;5127279;27;20589;-81
2023/09/28 03:59:52;;;;;;;4.93;2.20;;;;;;;-145.69;47.43;52068.13;5115085;28;20196;-82
2023/09/28 04:02:22;;;;;;;5.78;2.53;;;;;;;-145.69;47.60;52056.25;5129463;27;20197;-81
2023/09/28 04:04:49;;;;;;;4.72;2.30;;;;;;;-145.69;46.43;52036.44;5136323;27;20213;-81
2023/09/28 04:07:18;;;;;;;7.82;2.45;;;;;;;-145.69;47.22;52050.31;5135738;27;20304;-81
2023/09/28 04:09:44;;;;;;;9.10;2.40;;;;;;;-145.69;47.76;52070.09;5136402;27;20315;-81
2023/09/28 04:12:14;;;;;;;5.15;2.72;;;;;;;-145.69;46.80;52072.09;5123165;27;20242;-81
2023/09/28 04:14:43;;;;;;;3.90;1.90;;;;;;;-145.69;46.75;52091.88;5115543;28;20720;-81
2023/09/28 04:17:09;;;;;;;5.55;2.40;;;;;;;-145.69;47.24;52087.94;5115577;28;20201;-81
2023/09/28 04:19:36;;;;;;;5.95;2.25;;;;;;;-145.69;47.29;52054.25;5115351;28;20233;-81
2023/09/28 04:22:05;;;;;;;5.80;2.30;;;;;;;-145.69;46.50;52064.16;5125728;27;20200;-81
2023/09/28 04:24:31;;;;;;;3.88;2.10;;;;;;;-145.69;46.26;52076.03;5136045;27;20196;-81
2023/09/28 04:26:58;;;;;;;6.63;2.35;;;;;;;-145.69;45.79;52074.06;5136000;27;20200;-81
2023/09/28 04:29:28;;;;;;;5.05;2.10;;;;;;;-145.69;46.37;52064.16;5135624;27;20232;-80
2023/09/28 04:31:55;;;;;;;4.38;1.95;;;;;;;-145.69;45.94;52048.31;5127029;27;20201;-81
2023/09/28 04:34:21;;;;;;;6.20;2.47;;;;;;;-145.69;46.58;52036.44;5115139;28;20251;-81
2023/09/28 04:36:51;;;;;;;5.82;2.20;;;;;;;-145.69;46.86;52046.34;5116315;27;20210;-81
2023/09/28 04:39:23;;;;;;;4.50;2.08;;;;;;;-145.69;46.56;52056.25;5135444;27;20626;-81
2023/09/28 04:41:52;;;;;;;4.47;1.95;;;;;;;-145.69;46.67;52072.09;5133443;27;20695;-80
2023/09/28 04:44:18;;;;;;;5.45;2.33;;;;;;;-145.69;46.11;52038.44;5119927;27;20193;-81
2023/09/28 04:46:50;;;;;;;3.38;1.70;;;;;;;-145.69;45.92;52050.31;5135694;27;20283;-81
2023/09/28 04:49:17;;;;;;;4.65;2.20;;;;;;;-145.69;45.86;52091.88;5135113;27;20223;-81
2023/09/28 04:51:46;;;;;;;6.60;2.05;;;;;;;-145.69;46.41;52072.09;5129893;27;20220;-81
2023/09/28 04:54:13;;;;;;;4.63;2.03;;;;;;;-145.69;46.46;52078.03;5114751;28;20285;-81
2023/09/28 04:56:39;;;;;;;5.78;2.10;;;;;;;-145.69;46.84;52016.66;5114763;28;20411;-83
2023/09/28 04:59:09;;;;;;;5.13;2.28;;;;;;;-145.69;44.55;52060.22;5111404;28;20202;-81
2023/09/28 05:01:36;;;;;;;7.78;2.33;;;;;;;-145.69;45.55;52068.13;5118802;27;20189;-82
2023/09/28 05:04:10;;;;;;;4.40;2.17;;;;;;;-145.69;45.03;52050.31;5135604;27;20200;-82
2023/09/28 05:06:38;;;;;;;6.45;2.03;;;;;;;-145.69;45.77;52083.97;5135243;27;20231;-82
2023/09/28 05:09:05;;;;;;;6.90;2.70;;;;;;;-145.69;45.92;52080.00;5135115;27;20314;-81
2023/09/28 05:11:34;;;;;;;5.03;2.45;;;;;;;-145.69;46.12;52054.25;5129565;27;20913;-82
2023/09/28 05:14:01;;;;;;;4.82;2.28;;;;;;;-145.69;44.96;52068.13;5133461;27;20197;-81
2023/09/28 05:16:31;;;;;;;4.25;2.05;;;;;;;-145.69;45.96;52068.13;5135054;27;20201;-81
2023/09/28 05:18:58;;;;;;;5.18;2.13;;;;;;;-145.69;45.88;52050.31;5134478;27;20217;-81
2023/09/28 05:21:28;;;;;;;7.82;2.15;;;;;;;-145.69;45.97;52050.31;5118836;27;20194;-81
2023/09/28 05:23:55;;;;;;;6.30;2.50;;;;;;;-145.69;46.92;52072.09;5114228;28;20560;-82
2023/09/28 05:26:22;;;;;;;3.55;2.08;;;;;;;-145.69;46.36;52028.53;5114301;28;20201;-82
2023/09/28 05:28:49;;;;;;;3.50;1.77;;;;;;;-145.69;46.87;52038.44;5114007;28;20213;-81
2023/09/28 05:31:16;;;;;;;4.03;1.95;;;;;;;-145.69;47.25;52060.22;5127026;27;20204;-81
2023/09/28 05:33:42;;;;;;;5.47;1.90;;;;;;;-145.69;48.06;52068.13;5134736;27;20197;-81
2023/09/28 05:36:12;;;;;;;8.40;2.63;;;;;;;-145.69;47.86;52076.03;5134761;27;20193;-81
2023/09/28 05:38:39;;;;;;;5.68;2.33;;;;;;;-145.69;48.25;52042.38;5119284;27;20223;-81
2023/09/28 05:41:06;;;;;;;11.55;3.03;;;;;;;-145.69;48.35;52060.22;5134649;27;20559;-81
2023/09/28 05:43:33;;;;;;;4.43;2.05;;;;;;;-145.69;48.34;52068.13;5134542;27;20208;-81
2023/09/28 05:45:59;;;;;;;5.10;2.22;;;;;;;-145.69;47.97;52060.22;5134493;27;20196;-81
2023/09/28 05:48:27;;;;;;;3.08;1.80;;;;;;;-145.69;48.59;52052.28;5132287;27;20188;-80
2023/09/28 05:50:55;;;;;;;9.88;1.98;;;;;;;-145.69;49.53;52046.34;5132305;27;20227;-81
2023/09/28 05:53:24;;;;;;;4.18;1.98;;;;;;;-145.69;49.47;52066.16;5109858;28;20201;-81
2023/09/28 05:55:54;;;;;;;4.03;1.90;;;;;;;-145.69;49.06;52056.25;5113873;27;20216;-81
2023/09/28 05:58:24;;;;;;;3.15;1.88;;;;;;;-145.69;48.92;52042.38;5115447;27;20292;-81
2023/09/28 06:00:51;;;;;;;6.18;1.80;;;;;;;-145.69;50.45;52074.06;5134208;27;20296;-82
2023/09/28 06:03:17;;;;;;;7.45;2.60;;;;;;;-145.69;51.12;52070.09;5133833;27;20280;-81
2023/09/28 06:05:44;;;;;;;4.70;1.83;;;;;;;-145.69;49.84;52044.38;5133979;27;20201;-82
2023/09/28 06:08:10;;;;;;;4.53;1.90;;;;;;;-145.69;50.25;52060.22;5133556;27;20580;-81
2023/09/28 06:10:40;;;;;;;3.97;2.03;;;;;;;-145.69;50.07;52028.53;5113423;28;20216;-82
2023/09/28 06:13:07;;;;;;;4.60;1.85;;;;;;;-145.69;47.50;52048.31;5113486;28;20652;-81
2023/09/28 06:15:34;;;;;;;3.75;1.85;;;;;;;-145.69;47.27;52060.22;5126811;27;20212;-81
2023/09/28 06:18:01;;;;;;;4.65;1.95;;;;;;;-145.69;48.21;52048.31;5133418;27;20633;-81
2023/09/28 06:20:30;;;;;;;3.97;1.77;;;;;;;-145.69;47.88;52036.44;5114145;27;20656;-81
2023/09/28 06:22:56;;;;;;;3.50;2.00;;;;;;;-145.69;47.34;52028.53;5113338;28;20197;-81
2023/09/28 06:25:23;;;;;;;8.45;2.15;;;;;;;-145.69;47.88;52032.47;5113387;28;20568;-81
2023/09/28 06:27:50;;;;;;;8.02;1.80;;;;;;;-145.69;46.96;52040.41;5113510;28;20201;-81
2023/09/28 06:30:18;;;;;;;3.95;2.00;;;;;;;-145.69;46.71;52024.56;5113183;28;20684;-81
2023/09/28 06:32:44;;;;;;;3.45;1.77;;;;;;;-145.69;45.98;52020.59;5113254;28;20288;-82
2023/09/28 06:35:11;;;;;;;2.85;1.80;;;;;;;-145.69;46.79;52040.41;5113470;28;20210;-82
2023/09/28 06:37:37;;;;;;;4.43;1.90;;;;;;;-145.69;46.95;52004.75;5122086;28;20204;-81
2023/09/28 06:40:05;;;;;;;3.00;1.70;;;;;;;-145.69;47.40;52038.44;5133823;27;20196;-81
2023/09/28 06:42:32;;;;;;;6.97;1.75;;;;;;;-145.69;47.32;52024.56;5133913;27;20203;-81
2023/09/28 06:44:58;;;;;;;3.78;1.70;;;;;;;-145.69;48.22;52048.31;5128763;27;20200;-82
2023/09/28 06:47:26;;;;;;;2.83;1.50;;;;;;;-145.69;48.04;51992.88;5119731;28;20209;-81
2023/09/28 06:49:57;;;;;;;6.13;1.70;;;;;;;-145.69;49.03;52012.69;5133475;27;20728;-81
2023/09/28 06:52:24;;;;;;;4.03;1.70;;;;;;;-145.69;49.48;52042.38;5108853;27;20266;-77
2023/09/28 06:54:55;;;;;;;3.72;1.77;;;;;;;-145.69;50.02;52032.47;5093034;28;20225;-81
2023/09/28 06:57:23;;;;;;;4.20;1.98;;;;;;;-145.69;50.11;51981.00;5118466;28;20205;-80
2023/09/28 06:59:51;;;;;;;4.22;1.60;;;;;;;-145.69;49.49;52014.66;5112990;28;20276;-82
2023/09/28 07:02:18;;;;;;;3.13;1.60;;;;;;;-145.69;49.69;52008.72;5112533;28;20648;-81
2023/09/28 07:04:46;;;;;;;6.70;1.27;;;;;;;-145.69;49.56;52038.44;5115376;28;20190;-81
2023/09/28 07:07:18;;;;;;;2.67;1.50;;;;;;;-145.69;49.65;52022.59;5115338;27;20250;-82
2023/09/28 07:09:57;;;;;;;;;;;;;;;;;;;;;
2023/09/28 07:12:24;;;;;;;5.05;1.60;;;;;;;-145.69;51.47;52020.59;5113120;28;20204;-82
2023/09/28 07:14:51;;;;;;;2.92;1.45;;;;;;;-145.69;52.07;52036.44;5125370;28;20228;-81
2023/09/28 07:17:18;;;;;;;3.70;1.77;;;;;;;-145.69;51.61;52008.72;5133642;27;20615;-81
2023/09/28 07:19:51;;;;;;;6.28;1.45;;;;;;;-145.69;50.97;52004.75;5133089;27;20237;-82
2023/09/28 07:22:23;;;;;;;4.50;1.70;;;;;;;-145.69;51.07;52016.66;5133589;27;20197;-81
2023/09/28 07:24:50;;;;;;;3.40;1.40;;;;;;;-145.69;50.48;52008.72;5124980;27;20197;-82
2023/09/28 07:27:17;;;;;;;2.83;1.13;;;;;;;-145.69;50.17;52004.75;5112996;28;20197;-82
2023/09/28 07:29:45;;;;;;;1.48;1.20;;;;;;;-145.69;49.82;51973.06;5112636;28;20225;-81
2023/09/28 07:32:14;;;;;;;2.80;1.40;;;;;;;-145.69;50.51;52026.53;5112771;28;20284;-81
2023/09/28 07:34:45;;;;;;;2.42;1.48;;;;;;;-145.69;50.96;51965.16;5114948;27;20196;-81
2023/09/28 07:37:14;;;;;;;2.17;1.15;;;;;;;-145.69;51.27;51996.84;5136244;27;20201;-81
2023/09/28 07:39:44;;;;;;;2.78;1.40;;;;;;;-145.69;51.76;52008.72;5139797;27;20204;-81
2023/09/28 07:42:10;;;;;;;2.40;1.00;;;;;;;-145.69;52.47;52040.41;5137144;27;20678;-81
2023/09/28 07:44:40;;;;;;;2.38;1.30;;;;;;;-145.69;52.39;52008.72;5129040;27;20228;-81
2023/09/28 07:47:09;;;;;;;2.35;1.15;;;;;;;-145.69;52.58;52008.72;5130448;27;20189;-81
2023/09/28 07:49:40;;;;;;;2.67;1.40;;;;;;;-145.69;53.75;51998.81;5136621;27;20228;-81
2023/09/28 07:52:08;;;;;;;2.78;1.35;;;;;;;-145.69;53.45;52010.69;5137686;27;20644;-81
2023/09/28 07:54:39;;;;;;;2.95;1.20;;;;;;;-145.69;53.72;52012.69;5136569;27;20276;-81
2023/09/28 07:57:08;;;;;;;2.40;1.30;;;;;;;-145.69;53.72;52020.59;5136708;27;20221;-81
2023/09/28 07:59:36;;;;;;;2.72;1.25;;;;;;;-145.69;53.79;52008.72;5127959;27;20197;-80
2023/09/28 08:02:05;;;;;;;1.90;1.13;;;;;;;-145.69;54.35;52004.75;5123399;27;20562;-81
2023/09/28 08:04:32;;;;;;;2.65;1.33;;;;;;;-145.69;54.53;52038.44;5117712;27;20205;-80
2023/09/28 08:06:58;;;;;;;3.22;1.40;;;;;;;-145.69;55.23;52016.66;5126824;27;20287;-79
2023/09/28 08:09:25;;;;;;;2.22;1.10;;;;;;;-145.69;55.35;51998.81;5130204;27;20682;-80
2023/09/28 08:11:53;;;;;;;4.10;1.60;;;;;;;-145.69;55.49;52014.66;5119784;27;20967;-80
2023/09/28 08:14:21;;;;;;;2.15;1.40;;;;;;;-145.69;55.47;51982.97;5115881;28;20201;-81
2023/09/28 08:16:48;;;;;;;3.30;1.60;;;;;;;-145.69;55.21;52022.59;5115500;28;20361;-80
2023/09/28 08:19:15;;;;;;;9.70;1.90;;;;;;;-145.69;54.63;51988.91;5115460;28;20222;-81
2023/09/28 08:21:42;;;;;;;8.32;1.42;;;;;;;-145.69;52.54;52002.78;5115734;28;20576;-80
2023/09/28 08:24:10;;;;;;;5.65;1.50;;;;;;;-145.69;52.32;51965.16;5131245;27;20204;-80
2023/09/28 08:26:36;;;;;;;3.83;1.52;;;;;;;-145.69;51.15;52002.78;5136132;27;20277;-80
2023/09/28 08:29:04;;;;;;;2.72;1.30;;;;;;;-145.69;49.74;51984.97;5135652;27;20197;-81
2023/09/28 08:31:32;;;;;;;4.43;1.40;;;;;;;-145.69;49.46;51957.25;5127809;27;20225;-81
2023/09/28 08:33:59;;;;;;;2.40;1.35;;;;;;;-145.69;48.29;51992.88;5115688;28;20206;-81
2023/09/28 08:36:25;;;;;;;17.10;1.40;;;;;;;-145.69;47.17;51973.06;5127732;27;20712;-80
2023/09/28 08:38:52;;;;;;;2.53;1.50;;;;;;;-145.69;45.25;51961.19;5135874;27;20291;-80
2023/09/28 08:41:25;;;;;;;3.22;1.33;;;;;;;-145.69;42.44;51957.25;5130297;27;20276;-81
2023/09/28 08:43:54;;;;;;;2.67;1.52;;;;;;;-145.69;43.54;51925.56;5115352;28;20278;-80
2023/09/28 08:46:23;;;;;;;1.90;1.10;;;;;;;-145.69;44.29;51957.25;5115220;27;20602;-80
2023/09/28 08:48:51;;;;;;;1.58;1.02;;;;;;;-145.69;42.33;51969.13;5115233;28;20197;-80
2023/09/28 08:51:18;;;;;;;1.95;1.20;;;;;;;-145.69;41.44;51923.56;5127925;27;20218;-80
2023/09/28 08:53:48;;;;;;;2.35;1.17;;;;;;;-145.69;40.44;51965.16;5116127;27;20197;-80
2023/09/28 08:56:15;;;;;;;3.25;1.38;;;;;;;-145.69;40.72;51949.31;5128180;27;20189;-80
2023/09/28 08:58:43;;;;;;;3.47;1.35;;;;;;;-145.69;40.43;51965.16;5116696;27;20668;-81
2023/09/28 09:01:10;;;;;;;5.97;1.45;;;;;;;-145.69;40.52;51937.44;5120726;27;20275;-80
2023/09/28 09:03:42;;;;;;;2.00;1.10;;;;;;;-145.69;38.66;51961.19;5121617;27;20194;-81
2023/09/28 09:06:10;;;;;;;1.95;1.08;;;;;;;-145.69;38.26;51965.16;5114728;28;20576;-80
2023/09/28 09:08:40;;;;;;;2.05;1.50;;;;;;;-145.69;38.96;51957.25;5114635;28;20204;-81
2023/09/28 09:11:10;;;;;;;2.33;1.50;;;;;;;-145.69;37.79;51945.34;5114046;28;20308;-81
2023/09/28 09:13:47;;;;;;;4.00;1.35;;;;;;;-145.69;37.35;51959.22;5114348;28;20709;-81
2023/09/28 09:16:15;;;;;;;1.83;1.00;;;;;;;-145.69;37.05;51923.56;5114627;28;20197;-81
2023/09/28 09:18:43;;;;;;;4.22;1.20;;;;;;;-145.69;38.48;51907.72;5112745;28;20225;-81
2023/09/28 09:21:10;;;;;;;3.08;1.60;;;;;;;-145.69;38.67;51933.47;5115416;27;20668;-81
2023/09/28 09:23:39;;;;;;;1.85;1.10;;;;;;;-145.69;37.64;51949.31;5114421;27;20193;-81
2023/09/28 09:26:15;;;;;;;3.85;1.45;;;;;;;-145.69;38.72;51945.34;5112690;28;20213;-81
2023/09/28 09:28:46;;;;;;;2.95;1.40;;;;;;;-145.69;37.53;51923.56;5121759;27;20664;-81
2023/09/28 09:31:13;;;;;;;3.03;1.38;;;;;;;-145.69;37.80;51951.28;5133481;27;20220;-81
2023/09/28 09:33:39;;;;;;;2.72;1.50;;;;;;;-145.69;38.58;51874.06;5134101;27;20249;-81
2023/09/28 09:36:07;;;;;;;2.67;1.25;;;;;;;-145.69;38.28;51915.66;5134220;27;20216;-81
2023/09/28 09:38:34;;;;;;;2.30;1.33;;;;;;;-145.69;38.04;51933.47;5128512;27;20197;-81
2023/09/28 09:41:01;;;;;;;2.38;1.23;;;;;;;-145.69;38.10;51915.66;5123279;27;20192;-81
2023/09/28 09:43:34;;;;;;;2.25;1.08;;;;;;;-145.69;37.11;51883.97;5124873;27;20206;-80
2023/09/28 09:46:06;;;;;;;2.30;1.27;;;;;;;-145.69;36.86;51899.81;5113974;28;20200;-81
2023/09/28 09:48:41;;;;;;;2.03;1.20;;;;;;;-145.69;36.93;51874.06;5118754;27;20212;-81
2023/09/28 09:51:12;;;;;;;2.38;1.15;;;;;;;-145.69;35.91;51905.75;5131496;27;20265;-81
2023/09/28 09:53:41;;;;;;;1.63;1.20;;;;;;;-145.69;37.10;51880.00;5117708;27;20517;-80
2023/09/28 09:56:08;;;;;;;2.60;1.15;;;;;;;-145.69;36.49;51891.88;5125319;27;20243;-81
2023/09/28 09:58:38;;;;;;;2.20;1.15;;;;;;;-145.69;35.66;51891.88;5119445;27;20207;-81
2023/09/28 10:01:11;;;;;;;1.58;0.95;;;;;;;-145.69;35.55;51889.91;5122425;27;20220;-81
2023/09/28 10:03:43;;;;;;;2.83;1.20;;;;;;;-145.69;34.90;51897.84;5122645;27;20251;-82
2023/09/28 10:06:15;;;;;;;1.00;0.75;;;;;;;-145.69;33.38;51909.72;5115616;27;20201;-81
2023/09/28 10:08:42;;;;;;;1.52;0.98;;;;;;;-145.69;33.11;51885.94;5126196;27;20190;-82
2023/09/28 10:11:09;;;;;;;2.65;1.00;;;;;;;-145.69;33.31;51883.97;5113450;28;20229;-81
2023/09/28 10:13:39;;;;;;;1.88;0.73;;;;;;;-145.69;32.74;51878.03;5113343;28;20198;-81
2023/09/28 10:16:07;;;;;;;1.98;0.90;;;;;;;-145.69;32.49;51872.09;5113642;28;20224;-81
2023/09/28 10:18:38;;;;;;;1.20;0.80;;;;;;;-145.69;33.49;51885.94;5113270;28;20320;-81
2023/09/28 10:21:05;;;;;;;1.45;0.80;;;;;;;-145.69;34.78;51901.78;5113455;28;20656;-82
2023/09/28 10:23:33;;;;;;;2.28;0.98;;;;;;;-145.69;32.80;51913.69;5113454;28;20200;-82
2023/09/28 10:26:06;;;;;;;0.90;0.70;;;;;;;-145.69;32.76;51889.91;5113148;28;20284;-82
2023/09/28 10:28:35;;;;;;;1.23;0.75;;;;;;;-145.69;33.81;51893.88;5117521;28;20193;-81
2023/09/28 10:31:07;;;;;;;3.28;1.05;;;;;;;-145.69;34.98;51848.34;5124373;27;20223;-82
2023/09/28 10:33:34;;;;;;;1.58;0.95;;;;;;;-145.69;34.23;51876.06;5113440;28;20745;-81
2023/09/28 10:36:14;;;;;;;1.73;0.70;;;;;;;-145.69;33.94;51895.84;5128705;28;20189;-82
2023/09/28 10:38:42;;;;;;;3.13;0.90;;;;;;;-145.69;34.18;51866.16;5128099;27;20223;-82
2023/09/28 10:41:10;;;;;;;1.60;0.90;;;;;;;-145.69;34.21;51880.00;5123461;28;20197;-81
2023/09/28 10:43:39;;;;;;;1.08;0.77;;;;;;;-145.69;34.28;51889.91;5122788;27;20216;-81
2023/09/28 10:46:08;;;;;;;1.58;0.90;;;;;;;-145.69;34.00;51862.19;5112764;28;20197;-82
2023/09/28 10:48:40;;;;;;;1.33;0.80;;;;;;;-145.69;33.98;51870.13;5116944;28;20189;-82
2023/09/28 10:51:09;;;;;;;1.58;0.82;;;;;;;-145.69;33.54;51878.03;5122789;27;20225;-81
2023/09/28 10:53:36;;;;;;;1.15;0.80;;;;;;;-145.69;34.13;51866.16;5113251;28;20280;-82
2023/09/28 10:56:05;;;;;;;1.52;0.82;;;;;;;-145.69;33.77;51866.16;5115295;28;20197;-82
2023/09/28 10:58:33;;;;;;;1.63;0.80;;;;;;;-145.69;33.28;51874.06;5128974;28;20193;-82
2023/09/28 11:01:06;;;;;;;2.03;0.80;;;;;;;-145.69;32.43;51868.13;5113213;28;20208;-82
2023/09/28 11:03:33;;;;;;;1.80;0.75;;;;;;;-145.69;32.69;51862.19;5121576;28;20196;-82
2023/09/28 11:06:00;;;;;;;0.73;0.63;;;;;;;-145.69;32.65;51854.28;5113870;28;20194;-83
2023/09/28 11:08:27;;;;;;;1.10;0.82;;;;;;;-145.69;31.86;51858.22;5125006;27;20555;-82
2023/09/28 11:10:58;;;;;;;0.63;0.55;;;;;;;-145.69;31.27;51838.44;5135174;27;20224;-82
2023/09/28 11:13:26;;;;;;;1.00;0.60;;;;;;;-145.69;32.07;51822.59;5124820;27;20559;-82
2023/09/28 11:15:53;;;;;;;1.60;0.80;;;;;;;-145.69;31.52;51838.44;5117112;28;20202;-83
2023/09/28 11:18:20;;;;;;;1.27;0.75;;;;;;;-145.69;31.51;51834.47;5117932;27;20315;-82
2023/09/28 11:20:52;;;;;;;0.80;0.73;;;;;;;-145.69;33.63;51842.38;5138835;27;20211;-82
2023/09/28 11:23:19;;;;;;;1.15;0.70;;;;;;;-145.69;32.92;51814.66;5137989;27;20205;-83
2023/09/28 11:25:46;;;;;;;2.47;0.90;;;;;;;-145.69;32.34;51826.56;5137265;27;20201;-83
2023/09/28 11:28:13;;;;;;;1.77;1.00;;;;;;;-145.69;31.99;51838.44;5125904;27;20198;-82